Time;durP1;ratioP1;P1;durP2;ratioP2;P2;SDS_P1;SDS_P2;PMS_P1;PMS_P2;Temp;Humidity;BMP_temperature;BMP_pressure;BME280_temperature;BME280_humidity;BME280_pressure;Samples;Min_cycle;Max_cycle;Signal;HPM_P1;HPM_P2
2023/06/26 00:00:16;;;;;;;;;;;;;;;;;;1034434;28;19933;-73
2023/06/26 00:00:47;;;;;;;;;;;;;;;;;;1034542;28;20447;-74
2023/06/26 00:01:20;;;;;;;;;;;;;;;;;;1030298;28;19921;-74
2023/06/26 00:01:51;;;;;;;;;;;;;;;;;;1030375;28;19921;-74
2023/06/26 00:02:21;;;;;;;;;;;;;;;;;;1031373;28;19921;-74
2023/06/26 00:02:51;;;;;;;;;;;;;;;;;;1028165;28;19913;-74
2023/06/26 00:03:23;;;;;;;;;;;;;;;;;;1030177;28;19918;-73
2023/06/26 00:03:53;;;;;;;;;;;;;;;;;;1030367;28;19964;-73
2023/06/26 00:04:23;;;;;;;;;;;;;;;;;;1031559;28;20329;-74
2023/06/26 00:04:53;;;;;;;;;;;;;;;;;;1035652;28;19913;-74
2023/06/26 00:05:24;;;;;;;;;;;;;;;;;;1031422;28;19924;-74
2023/06/26 00:05:54;;;;;;;;;;;;;;;;;;1030896;28;20335;-74
2023/06/26 00:06:24;;;;;;;;;;;;;;;;;;1026404;28;19918;-74
2023/06/26 00:06:54;;;;;;;;;;;;;;;;;;1026864;28;20017;-74
2023/06/26 00:07:25;;;;;;;;;;;;;;;;;;1029577;28;19955;-74
2023/06/26 00:07:55;;;;;;;;;;;;;;;;;;1027120;28;20100;-74
2023/06/26 00:08:25;;;;;;;;;;;;;;;;;;1031005;28;19919;-74
2023/06/26 00:08:56;;;;;;;;;;;;;;;;;;1035253;28;20293;-74
2023/06/26 00:09:26;;;;;;;;;;;;;;;;;;1035268;28;19914;-74
2023/06/26 00:09:56;;;;;;;;;;;;;;;;;;1038063;28;19914;-73
2023/06/26 00:10:27;;;;;;;;;;;;;;;;;;1035700;28;19956;-74
2023/06/26 00:10:57;;;;;;;;;;;;;;;;;;1035940;28;19979;-73
2023/06/26 00:11:30;;;;;;;;;;;;;;;;;;1035080;28;20032;-73
2023/06/26 00:12:00;;;;;;;;;;;;;;;;;;1034891;28;19963;-73
2023/06/26 00:12:31;;;;;;;;;;;;;;;;;;1039595;28;19921;-74
2023/06/26 00:13:02;;;;;;;;;;;;;;;;;;1039781;28;19909;-74
2023/06/26 00:13:32;;;;;;;;;;;;;;;;;;1034050;28;19913;-74
2023/06/26 00:14:02;;;;;;;;;;;;;;;;;;1035843;28;19948;-73
2023/06/26 00:14:33;;;;;;;;;;;;;;;;;;1032705;28;19920;-73
2023/06/26 00:15:03;;;;;;;;;;;;;;;;;;1033298;28;19914;-73
2023/06/26 00:15:33;;;;;;;;;;;;;;;;;;1031558;28;19918;-73
2023/06/26 00:16:04;;;;;;;;;;;;;;;;;;1030686;28;20009;-74
2023/06/26 00:16:34;;;;;;;;;;;;;;;;;;1035272;28;19952;-73
2023/06/26 00:17:05;;;;;;;;;;;;;;;;;;1034919;28;19972;-74
2023/06/26 00:17:37;;;;;;;;;;;;;;;;;;1039779;28;19935;-74
2023/06/26 00:18:07;;;;;;;;;;;;;;;;;;1038709;28;19956;-74
2023/06/26 00:18:37;;;;;;;;;;;;;;;;;;1039406;28;19916;-73
2023/06/26 00:19:08;;;;;;;;;;;;;;;;;;1039974;28;20016;-73
2023/06/26 00:19:38;;;;;;;;;;;;;;;;;;1039079;28;20435;-73
2023/06/26 00:20:08;;;;;;;;;;;;;;;;;;1035308;28;20007;-74
2023/06/26 00:20:39;;;;;;;;;;;;;;;;;;1035653;28;20024;-74
2023/06/26 00:21:09;;;;;;;;;;;;;;;;;;1031085;28;19977;-73
2023/06/26 00:21:39;;;;;;;;;;;;;;;;;;1030356;28;19917;-74
2023/06/26 00:22:10;;;;;;;;;;;;;;;;;;1035062;28;20020;-73
2023/06/26 00:22:43;;;;;;;;;;;;;;;;;;1034951;28;19949;-74
2023/06/26 00:23:16;;;;;;;;;;;;;;;;;;1035385;28;19918;-74
2023/06/26 00:23:46;;;;;;;;;;;;;;;;;;1039977;28;19917;-74
2023/06/26 00:24:16;;;;;;;;;;;;;;;;;;1038824;28;20341;-74
2023/06/26 00:24:47;;;;;;;;;;;;;;;;;;1038793;28;19912;-73
2023/06/26 00:25:17;;;;;;;;;;;;;;;;;;1034657;28;20015;-73
2023/06/26 00:25:47;;;;;;;;;;;;;;;;;;1035271;28;19952;-74
2023/06/26 00:26:17;;;;;;;;;;;;;;;;;;1034835;28;19984;-73
2023/06/26 00:26:48;;;;;;;;;;;;;;;;;;1034746;28;19924;-73
2023/06/26 00:27:18;;;;;;;;;;;;;;;;;;1035224;28;19914;-74
2023/06/26 00:27:48;;;;;;;;;;;;;;;;;;1030880;28;19921;-74
2023/06/26 00:28:18;;;;;;;;;;;;;;;;;;1031398;28;20869;-74
2023/06/26 00:28:49;;;;;;;;;;;;;;;;;;1030727;28;19929;-73
2023/06/26 00:29:19;;;;;;;;;;;;;;;;;;1034704;28;19947;-73
2023/06/26 00:29:49;;;;;;;;;;;;;;;;;;1039125;28;20039;-74
2023/06/26 00:30:19;;;;;;;;;;;;;;;;;;1039421;28;19947;-73
2023/06/26 00:30:50;;;;;;;;;;;;;;;;;;1039545;28;19923;-73
2023/06/26 00:31:20;;;;;;;;;;;;;;;;;;1040390;28;19913;-73
2023/06/26 00:31:50;;;;;;;;;;;;;;;;;;1038026;28;19913;-73
2023/06/26 00:32:21;;;;;;;;;;;;;;;;;;1039208;28;20265;-73
2023/06/26 00:32:51;;;;;;;;;;;;;;;;;;1040360;28;19952;-73
2023/06/26 00:33:22;;;;;;;;;;;;;;;;;;1039451;28;19966;-73
2023/06/26 00:33:52;;;;;;;;;;;;;;;;;;1039662;28;19909;-73
2023/06/26 00:34:22;;;;;;;;;;;;;;;;;;1039281;28;20428;-73
2023/06/26 00:34:53;;;;;;;;;;;;;;;;;;1039201;28;20785;-73
2023/06/26 00:35:23;;;;;;;;;;;;;;;;;;1039233;28;19916;-73
2023/06/26 00:35:53;;;;;;;;;;;;;;;;;;1040462;28;19919;-73
2023/06/26 00:36:26;;;;;;;;;;;;;;;;;;1039583;28;20005;-73
2023/06/26 00:36:56;;;;;;;;;;;;;;;;;;1039842;28;19912;-73
2023/06/26 00:37:26;;;;;;;;;;;;;;;;;;1039323;28;19960;-72
2023/06/26 00:37:57;;;;;;;;;;;;;;;;;;1040415;28;19920;-73
2023/06/26 00:38:27;;;;;;;;;;;;;;;;;;1034767;28;19913;-73
2023/06/26 00:38:57;;;;;;;;;;;;;;;;;;1033401;28;19963;-73
2023/06/26 00:39:27;;;;;;;;;;;;;;;;;;1036360;28;20405;-73
2023/06/26 00:39:58;;;;;;;;;;;;;;;;;;1035352;28;19913;-73
2023/06/26 00:40:28;;;;;;;;;;;;;;;;;;1031076;28;19894;-73
2023/06/26 00:40:58;;;;;;;;;;;;;;;;;;1034214;28;19925;-73
2023/06/26 00:41:28;;;;;;;;;;;;;;;;;;1030505;28;19921;-73
2023/06/26 00:41:58;;;;;;;;;;;;;;;;;;1034109;28;19913;-73
2023/06/26 00:42:29;;;;;;;;;;;;;;;;;;1033994;28;19948;-73
2023/06/26 00:43:00;;;;;;;;;;;;;;;;;;1030329;28;20388;-73
2023/06/26 00:43:30;;;;;;;;;;;;;;;;;;1033064;28;19917;-73
2023/06/26 00:44:00;;;;;;;;;;;;;;;;;;1038114;28;19914;-73
2023/06/26 00:44:30;;;;;;;;;;;;;;;;;;1038390;28;20404;-73
2023/06/26 00:45:01;;;;;;;;;;;;;;;;;;1039802;28;19936;-73
2023/06/26 00:45:31;;;;;;;;;;;;;;;;;;1038087;28;19913;-73
2023/06/26 00:46:01;;;;;;;;;;;;;;;;;;1038712;28;19913;-73
2023/06/26 00:46:31;;;;;;;;;;;;;;;;;;1037464;28;19913;-73
2023/06/26 00:47:01;;;;;;;;;;;;;;;;;;1036969;28;19940;-73
2023/06/26 00:47:32;;;;;;;;;;;;;;;;;;1038398;28;19919;-73
2023/06/26 00:48:02;;;;;;;;;;;;;;;;;;1037904;28;20388;-73
2023/06/26 00:48:32;;;;;;;;;;;;;;;;;;1037990;28;20353;-73
2023/06/26 00:49:03;;;;;;;;;;;;;;;;;;1037893;28;19913;-73
2023/06/26 00:49:33;;;;;;;;;;;;;;;;;;1038767;28;19914;-73
2023/06/26 00:50:03;;;;;;;;;;;;;;;;;;1036355;28;19913;-73
2023/06/26 00:50:33;;;;;;;;;;;;;;;;;;1035948;28;19924;-73
2023/06/26 00:51:04;;;;;;;;;;;;;;;;;;1032232;28;20400;-73
2023/06/26 00:51:34;;;;;;;;;;;;;;;;;;1033312;28;19925;-73
2023/06/26 00:52:04;;;;;;;;;;;;;;;;;;1034923;28;19921;-73
2023/06/26 00:52:34;;;;;;;;;;;;;;;;;;1034288;28;19914;-73
2023/06/26 00:53:05;;;;;;;;;;;;;;;;;;1037795;28;19913;-73
2023/06/26 00:53:35;;;;;;;;;;;;;;;;;;1037935;28;19961;-73
2023/06/26 00:54:05;;;;;;;;;;;;;;;;;;1042875;28;19944;-73
2023/06/26 00:54:35;;;;;;;;;;;;;;;;;;1042487;28;19948;-73
2023/06/26 00:55:06;;;;;;;;;;;;;;;;;;1041899;28;19959;-73
2023/06/26 00:55:36;;;;;;;;;;;;;;;;;;1042690;28;20007;-73
2023/06/26 00:56:06;;;;;;;;;;;;;;;;;;1042587;28;19962;-73
2023/06/26 00:56:37;;;;;;;;;;;;;;;;;;1042861;28;19913;-73
2023/06/26 00:57:07;;;;;;;;;;;;;;;;;;1042838;28;19964;-73
2023/06/26 00:57:37;;;;;;;;;;;;;;;;;;1042816;28;19963;-73
2023/06/26 00:58:08;;;;;;;;;;;;;;;;;;1042843;28;19920;-73
2023/06/26 00:58:38;;;;;;;;;;;;;;;;;;1038490;28;19956;-73
2023/06/26 00:59:08;;;;;;;;;;;;;;;;;;1033886;28;20374;-73
2023/06/26 00:59:38;;;;;;;;;;;;;;;;;;1033914;28;19914;-73
2023/06/26 01:00:10;;;;;;;;;;;;;;;;;;1034394;28;19914;-73
2023/06/26 01:00:40;;;;;;;;;;;;;;;;;;1037776;28;20308;-73
2023/06/26 01:01:15;;;;;;;;;;;;;;;;;;1039307;28;19893;-73
2023/06/26 01:01:45;;;;;;;;;;;;;;;;;;1037881;28;19968;-73
2023/06/26 01:02:20;;;;;;;;;;;;;;;;;;1039032;28;20027;-73
2023/06/26 01:02:50;;;;;;;;;;;;;;;;;;1041626;28;19913;-73
2023/06/26 01:03:20;;;;;;;;;;;;;;;;;;1042836;28;20002;-73
2023/06/26 01:03:53;;;;;;;;;;;;;;;;;;1042498;28;19915;-73
2023/06/26 01:04:27;;;;;;;;;;;;;;;;;;1037867;28;19913;-73
2023/06/26 01:04:57;;;;;;;;;;;;;;;;;;1035639;28;19921;-73
2023/06/26 01:05:27;;;;;;;;;;;;;;;;;;1036203;28;20008;-74
2023/06/26 01:05:58;;;;;;;;;;;;;;;;;;1028610;28;19953;-74
2023/06/26 01:06:31;;;;;;;;;;;;;;;;;;1028585;28;19921;-73
2023/06/26 01:07:01;;;;;;;;;;;;;;;;;;1032441;28;19917;-73
2023/06/26 01:07:34;;;;;;;;;;;;;;;;;;1038490;28;19953;-73
2023/06/26 01:08:04;;;;;;;;;;;;;;;;;;1042774;28;20309;-73
2023/06/26 01:08:35;;;;;;;;;;;;;;;;;;1042503;28;20019;-73
2023/06/26 01:09:05;;;;;;;;;;;;;;;;;;1037862;28;19913;-73
2023/06/26 01:09:35;;;;;;;;;;;;;;;;;;1035910;28;19914;-73
2023/06/26 01:10:05;;;;;;;;;;;;;;;;;;1035201;28;19914;-73
2023/06/26 01:10:36;;;;;;;;;;;;;;;;;;1036798;28;19913;-73
2023/06/26 01:11:06;;;;;;;;;;;;;;;;;;1033716;28;19917;-73
2023/06/26 01:11:36;;;;;;;;;;;;;;;;;;1033869;28;19913;-73
2023/06/26 01:12:06;;;;;;;;;;;;;;;;;;1038528;28;19917;-73
2023/06/26 01:12:38;;;;;;;;;;;;;;;;;;1038136;28;19975;-73
2023/06/26 01:13:08;;;;;;;;;;;;;;;;;;1043386;28;19948;-73
2023/06/26 01:13:39;;;;;;;;;;;;;;;;;;1042780;28;19919;-73
2023/06/26 01:14:09;;;;;;;;;;;;;;;;;;1042532;28;20230;-74
2023/06/26 01:14:39;;;;;;;;;;;;;;;;;;1042434;28;19921;-74
2023/06/26 01:15:10;;;;;;;;;;;;;;;;;;1042510;28;19963;-74
2023/06/26 01:15:40;;;;;;;;;;;;;;;;;;1042055;28;19913;-74
2023/06/26 01:16:10;;;;;;;;;;;;;;;;;;1037878;28;19920;-73
2023/06/26 01:16:41;;;;;;;;;;;;;;;;;;1037471;28;19959;-73
2023/06/26 01:17:13;;;;;;;;;;;;;;;;;;1037894;28;20198;-73
2023/06/26 01:17:45;;;;;;;;;;;;;;;;;;1038834;28;19913;-73
2023/06/26 01:18:15;;;;;;;;;;;;;;;;;;1040407;28;20289;-73
2023/06/26 01:18:46;;;;;;;;;;;;;;;;;;1041597;28;19917;-74
2023/06/26 01:19:24;;;;;;;;;;;;;;;;;;1035691;28;19964;-73
2023/06/26 01:19:54;;;;;;;;;;;;;;;;;;1033751;28;19924;-73
2023/06/26 01:20:25;;;;;;;;;;;;;;;;;;1033873;28;19921;-73
2023/06/26 01:21:00;;;;;;;;;;;;;;;;;;1035288;28;19914;-73
2023/06/26 01:21:32;;;;;;;;;;;;;;;;;;1038282;28;19913;-73
2023/06/26 01:22:02;;;;;;;;;;;;;;;;;;1033815;28;20016;-73
2023/06/26 01:22:32;;;;;;;;;;;;;;;;;;1031645;28;19919;-73
2023/06/26 01:23:03;;;;;;;;;;;;;;;;;;1029403;28;19920;-73
2023/06/26 01:23:36;;;;;;;;;;;;;;;;;;1029601;28;20004;-73
2023/06/26 01:24:06;;;;;;;;;;;;;;;;;;1034053;28;19961;-73
2023/06/26 01:24:37;;;;;;;;;;;;;;;;;;1032872;28;19963;-73
2023/06/26 01:25:07;;;;;;;;;;;;;;;;;;1035565;28;20009;-73
2023/06/26 01:25:38;;;;;;;;;;;;;;;;;;1037474;28;19919;-73
2023/06/26 01:26:08;;;;;;;;;;;;;;;;;;1036399;28;19913;-73
2023/06/26 01:26:39;;;;;;;;;;;;;;;;;;1041766;28;20007;-73
2023/06/26 01:27:09;;;;;;;;;;;;;;;;;;1042425;28;19923;-73
2023/06/26 01:27:40;;;;;;;;;;;;;;;;;;1042524;28;20012;-73
2023/06/26 01:28:10;;;;;;;;;;;;;;;;;;1043223;28;19938;-73
2023/06/26 01:28:40;;;;;;;;;;;;;;;;;;1040359;28;19913;-73
2023/06/26 01:29:10;;;;;;;;;;;;;;;;;;1040678;28;19939;-73
2023/06/26 01:29:41;;;;;;;;;;;;;;;;;;1040475;28;19917;-73
2023/06/26 01:30:11;;;;;;;;;;;;;;;;;;1041585;28;19979;-73
2023/06/26 01:30:41;;;;;;;;;;;;;;;;;;1040418;28;19917;-73
2023/06/26 01:31:11;;;;;;;;;;;;;;;;;;1041236;28;19948;-73
2023/06/26 01:31:42;;;;;;;;;;;;;;;;;;1041429;28;19976;-73
2023/06/26 01:32:12;;;;;;;;;;;;;;;;;;1040695;28;20400;-75
2023/06/26 01:32:42;;;;;;;;;;;;;;;;;;1036777;28;20131;-73
2023/06/26 01:33:12;;;;;;;;;;;;;;;;;;1037814;28;19952;-73
2023/06/26 01:33:43;;;;;;;;;;;;;;;;;;1033912;28;20428;-73
2023/06/26 01:34:13;;;;;;;;;;;;;;;;;;1032559;28;20018;-73
2023/06/26 01:34:43;;;;;;;;;;;;;;;;;;1037461;28;19928;-73
2023/06/26 01:35:13;;;;;;;;;;;;;;;;;;1037006;28;19913;-73
2023/06/26 01:35:44;;;;;;;;;;;;;;;;;;1036915;28;20393;-74
2023/06/26 01:36:14;;;;;;;;;;;;;;;;;;1035748;28;19924;-73
2023/06/26 01:36:44;;;;;;;;;;;;;;;;;;1037000;28;19913;-73
2023/06/26 01:37:14;;;;;;;;;;;;;;;;;;1036183;28;19917;-73
2023/06/26 01:37:45;;;;;;;;;;;;;;;;;;1036737;28;20435;-73
2023/06/26 01:38:15;;;;;;;;;;;;;;;;;;1035008;28;19917;-74
2023/06/26 01:38:45;;;;;;;;;;;;;;;;;;1036727;28;19967;-74
2023/06/26 01:39:15;;;;;;;;;;;;;;;;;;1032684;28;19922;-73
2023/06/26 01:39:46;;;;;;;;;;;;;;;;;;1035508;28;19913;-74
2023/06/26 01:40:16;;;;;;;;;;;;;;;;;;1034486;28;19918;-73
2023/06/26 01:40:46;;;;;;;;;;;;;;;;;;1036810;28;19959;-73
2023/06/26 01:41:16;;;;;;;;;;;;;;;;;;1035605;28;19945;-73
2023/06/26 01:41:47;;;;;;;;;;;;;;;;;;1036282;28;19960;-73
2023/06/26 01:42:17;;;;;;;;;;;;;;;;;;1036499;28;20016;-73
2023/06/26 01:42:47;;;;;;;;;;;;;;;;;;1036589;28;19917;-73
2023/06/26 01:43:18;;;;;;;;;;;;;;;;;;1035860;28;19913;-73
2023/06/26 01:43:48;;;;;;;;;;;;;;;;;;1038414;28;20654;-75
2023/06/26 01:44:18;;;;;;;;;;;;;;;;;;1038045;28;20296;-74
2023/06/26 01:44:48;;;;;;;;;;;;;;;;;;1037298;28;20048;-74
2023/06/26 01:45:19;;;;;;;;;;;;;;;;;;1035042;28;19913;-74
2023/06/26 01:45:49;;;;;;;;;;;;;;;;;;1035985;28;20425;-73
2023/06/26 01:46:19;;;;;;;;;;;;;;;;;;1034937;28;19971;-74
2023/06/26 01:46:49;;;;;;;;;;;;;;;;;;1032368;28;19976;-74
2023/06/26 01:47:20;;;;;;;;;;;;;;;;;;1037700;28;19918;-74
2023/06/26 01:47:50;;;;;;;;;;;;;;;;;;1035085;28;20004;-74
2023/06/26 01:48:21;;;;;;;;;;;;;;;;;;1035303;28;19917;-74
2023/06/26 01:48:51;;;;;;;;;;;;;;;;;;1037865;28;19963;-73
2023/06/26 01:49:21;;;;;;;;;;;;;;;;;;1040206;28;20369;-74
2023/06/26 01:49:51;;;;;;;;;;;;;;;;;;1037069;28;19913;-74
2023/06/26 01:50:22;;;;;;;;;;;;;;;;;;1041337;28;20006;-74
2023/06/26 01:50:52;;;;;;;;;;;;;;;;;;1040010;28;20370;-74
2023/06/26 01:51:22;;;;;;;;;;;;;;;;;;1038399;28;19920;-74
2023/06/26 01:51:52;;;;;;;;;;;;;;;;;;1041327;28;19916;-74
2023/06/26 01:52:23;;;;;;;;;;;;;;;;;;1040127;28;20013;-74
2023/06/26 01:52:53;;;;;;;;;;;;;;;;;;1041444;28;20372;-74
2023/06/26 01:53:23;;;;;;;;;;;;;;;;;;1040764;28;19917;-74
2023/06/26 01:53:53;;;;;;;;;;;;;;;;;;1040426;28;19913;-74
2023/06/26 01:54:24;;;;;;;;;;;;;;;;;;1043035;28;20295;-73
2023/06/26 01:54:54;;;;;;;;;;;;;;;;;;1040294;28;19920;-74
2023/06/26 01:55:24;;;;;;;;;;;;;;;;;;1039254;28;19924;-74
2023/06/26 01:55:55;;;;;;;;;;;;;;;;;;1042263;28;19912;-74
2023/06/26 01:56:25;;;;;;;;;;;;;;;;;;1038316;28;19920;-73
2023/06/26 01:56:55;;;;;;;;;;;;;;;;;;1040943;28;19923;-74
2023/06/26 01:57:25;;;;;;;;;;;;;;;;;;1042404;28;20039;-74
2023/06/26 01:57:56;;;;;;;;;;;;;;;;;;1042047;28;19963;-74
2023/06/26 01:58:26;;;;;;;;;;;;;;;;;;1042892;28;19923;-74
2023/06/26 01:58:57;;;;;;;;;;;;;;;;;;1043146;28;19908;-74
2023/06/26 01:59:27;;;;;;;;;;;;;;;;;;1042392;28;20287;-74
2023/06/26 01:59:58;;;;;;;;;;;;;;;;;;1043888;28;19934;-74
2023/06/26 02:00:28;;;;;;;;;;;;;;;;;;1039277;28;20007;-74
2023/06/26 02:00:58;;;;;;;;;;;;;;;;;;1039627;28;19916;-74
2023/06/26 02:01:29;;;;;;;;;;;;;;;;;;1042311;28;20005;-73
2023/06/26 02:02:00;;;;;;;;;;;;;;;;;;1039103;28;20235;-75
2023/06/26 02:02:30;;;;;;;;;;;;;;;;;;1041217;28;21125;-74
2023/06/26 02:03:00;;;;;;;;;;;;;;;;;;1036072;28;19924;-74
2023/06/26 02:03:30;;;;;;;;;;;;;;;;;;1034840;28;20001;-74
2023/06/26 02:04:01;;;;;;;;;;;;;;;;;;1034211;28;20410;-74
2023/06/26 02:04:31;;;;;;;;;;;;;;;;;;1034186;28;19917;-73
2023/06/26 02:05:01;;;;;;;;;;;;;;;;;;1029419;28;19954;-73
2023/06/26 02:05:31;;;;;;;;;;;;;;;;;;1033481;28;19994;-73
2023/06/26 02:06:02;;;;;;;;;;;;;;;;;;1034788;28;20436;-75
2023/06/26 02:06:32;;;;;;;;;;;;;;;;;;1033787;28;20420;-75
2023/06/26 02:07:02;;;;;;;;;;;;;;;;;;1037558;28;19963;-74
2023/06/26 02:07:32;;;;;;;;;;;;;;;;;;1037935;28;19920;-74
2023/06/26 02:08:02;;;;;;;;;;;;;;;;;;1033009;28;19922;-74
2023/06/26 02:08:33;;;;;;;;;;;;;;;;;;1037400;28;19917;-74
2023/06/26 02:09:03;;;;;;;;;;;;;;;;;;1037493;28;20398;-73
2023/06/26 02:09:33;;;;;;;;;;;;;;;;;;1036703;28;20011;-74
2023/06/26 02:10:04;;;;;;;;;;;;;;;;;;1030976;28;19914;-74
2023/06/26 02:10:34;;;;;;;;;;;;;;;;;;1032082;28;19917;-74
2023/06/26 02:11:04;;;;;;;;;;;;;;;;;;1032717;28;20401;-73
2023/06/26 02:11:35;;;;;;;;;;;;;;;;;;1033336;28;19963;-74
2023/06/26 02:12:05;;;;;;;;;;;;;;;;;;1031747;28;19947;-74
2023/06/26 02:12:35;;;;;;;;;;;;;;;;;;1027630;28;19917;-74
2023/06/26 02:13:06;;;;;;;;;;;;;;;;;;1037741;28;19916;-74
2023/06/26 02:13:36;;;;;;;;;;;;;;;;;;1036890;28;20414;-74
2023/06/26 02:14:06;;;;;;;;;;;;;;;;;;1038517;28;20277;-74
2023/06/26 02:14:36;;;;;;;;;;;;;;;;;;1042680;28;19919;-74
2023/06/26 02:15:06;;;;;;;;;;;;;;;;;;1042719;28;19924;-74
2023/06/26 02:15:38;;;;;;;;;;;;;;;;;;1034877;28;19917;-74
2023/06/26 02:16:08;;;;;;;;;;;;;;;;;;1035119;28;19991;-74
2023/06/26 02:16:38;;;;;;;;;;;;;;;;;;1032494;28;19914;-74
2023/06/26 02:17:09;;;;;;;;;;;;;;;;;;1033375;28;19914;-73
2023/06/26 02:17:39;;;;;;;;;;;;;;;;;;1035050;28;20015;-74
2023/06/26 02:18:10;;;;;;;;;;;;;;;;;;1038387;28;20052;-74
2023/06/26 02:18:41;;;;;;;;;;;;;;;;;;1042420;28;19898;-74
2023/06/26 02:19:11;;;;;;;;;;;;;;;;;;1042556;28;20394;-74
2023/06/26 02:19:47;;;;;;;;;;;;;;;;;;1040974;28;19917;-74
2023/06/26 02:20:17;;;;;;;;;;;;;;;;;;1042681;28;19917;-73
2023/06/26 02:20:47;;;;;;;;;;;;;;;;;;1041754;28;20292;-74
2023/06/26 02:21:17;;;;;;;;;;;;;;;;;;1042211;28;20331;-74
2023/06/26 02:21:48;;;;;;;;;;;;;;;;;;1042185;28;19913;-74
2023/06/26 02:22:18;;;;;;;;;;;;;;;;;;1040616;28;20441;-74
2023/06/26 02:22:48;;;;;;;;;;;;;;;;;;1037599;28;19971;-74
2023/06/26 02:23:19;;;;;;;;;;;;;;;;;;1038664;28;20004;-74
2023/06/26 02:23:49;;;;;;;;;;;;;;;;;;1036922;28;19971;-74
2023/06/26 02:24:19;;;;;;;;;;;;;;;;;;1036325;28;19968;-74
2023/06/26 02:24:49;;;;;;;;;;;;;;;;;;1036392;28;20023;-74
2023/06/26 02:25:20;;;;;;;;;;;;;;;;;;1037299;28;19964;-74
2023/06/26 02:25:50;;;;;;;;;;;;;;;;;;1037468;28;19914;-74
2023/06/26 02:26:20;;;;;;;;;;;;;;;;;;1040402;28;19925;-74
2023/06/26 02:26:50;;;;;;;;;;;;;;;;;;1038651;28;20396;-74
2023/06/26 02:27:21;;;;;;;;;;;;;;;;;;1041292;28;19917;-73
2023/06/26 02:27:51;;;;;;;;;;;;;;;;;;1041875;28;19925;-73
2023/06/26 02:28:21;;;;;;;;;;;;;;;;;;1040758;28;19918;-73
2023/06/26 02:28:52;;;;;;;;;;;;;;;;;;1039391;28;20578;-74
2023/06/26 02:29:22;;;;;;;;;;;;;;;;;;1036879;28;20385;-74
2023/06/26 02:29:52;;;;;;;;;;;;;;;;;;1037846;28;20323;-73
2023/06/26 02:30:22;;;;;;;;;;;;;;;;;;1035562;28;20290;-73
2023/06/26 02:30:52;;;;;;;;;;;;;;;;;;1038608;28;20289;-74
2023/06/26 02:31:23;;;;;;;;;;;;;;;;;;1039272;28;20007;-73
2023/06/26 02:31:53;;;;;;;;;;;;;;;;;;1040505;28;19956;-73
2023/06/26 02:32:23;;;;;;;;;;;;;;;;;;1038134;28;20023;-76
2023/06/26 02:32:54;;;;;;;;;;;;;;;;;;1040010;28;19913;-75
2023/06/26 02:33:24;;;;;;;;;;;;;;;;;;1042371;28;19917;-72
2023/06/26 02:33:54;;;;;;;;;;;;;;;;;;1039810;28;19909;-74
2023/06/26 02:34:24;;;;;;;;;;;;;;;;;;1041553;28;19936;-74
2023/06/26 02:34:55;;;;;;;;;;;;;;;;;;1042710;28;19912;-74
2023/06/26 02:35:25;;;;;;;;;;;;;;;;;;1041153;28;20274;-73
2023/06/26 02:35:55;;;;;;;;;;;;;;;;;;1042068;28;20004;-74
2023/06/26 02:36:25;;;;;;;;;;;;;;;;;;1039935;28;20071;-74
2023/06/26 02:36:56;;;;;;;;;;;;;;;;;;1037043;28;19941;-73
2023/06/26 02:37:26;;;;;;;;;;;;;;;;;;1033389;28;19956;-74
2023/06/26 02:37:56;;;;;;;;;;;;;;;;;;1033238;28;19918;-74
2023/06/26 02:38:26;;;;;;;;;;;;;;;;;;1034363;28;19913;-73
2023/06/26 02:38:57;;;;;;;;;;;;;;;;;;1033909;28;20280;-73
2023/06/26 02:39:27;;;;;;;;;;;;;;;;;;1039323;28;19916;-73
2023/06/26 02:39:57;;;;;;;;;;;;;;;;;;1034465;28;19913;-74
2023/06/26 02:40:27;;;;;;;;;;;;;;;;;;1032519;28;19918;-74
2023/06/26 02:40:58;;;;;;;;;;;;;;;;;;1031525;28;19922;-74
2023/06/26 02:41:28;;;;;;;;;;;;;;;;;;1028982;28;19917;-73
2023/06/26 02:41:58;;;;;;;;;;;;;;;;;;1034086;28;20365;-73
2023/06/26 02:42:28;;;;;;;;;;;;;;;;;;1033756;28;19945;-74
2023/06/26 02:42:59;;;;;;;;;;;;;;;;;;1032870;28;19920;-73
2023/06/26 02:43:29;;;;;;;;;;;;;;;;;;1038310;28;20346;-74
2023/06/26 02:43:59;;;;;;;;;;;;;;;;;;1033932;28;20181;-73
2023/06/26 02:44:29;;;;;;;;;;;;;;;;;;1035390;28;19918;-74
2023/06/26 02:45:00;;;;;;;;;;;;;;;;;;1035771;28;19956;-73
2023/06/26 02:45:30;;;;;;;;;;;;;;;;;;1038445;28;19969;-73
2023/06/26 02:46:00;;;;;;;;;;;;;;;;;;1037752;28;19913;-75
2023/06/26 02:46:31;;;;;;;;;;;;;;;;;;1033245;28;19917;-75
2023/06/26 02:47:01;;;;;;;;;;;;;;;;;;1036669;28;20771;-75
2023/06/26 02:47:31;;;;;;;;;;;;;;;;;;1030686;28;19929;-74
2023/06/26 02:48:02;;;;;;;;;;;;;;;;;;1032640;28;19918;-74
2023/06/26 02:48:32;;;;;;;;;;;;;;;;;;1036898;28;20009;-74
2023/06/26 02:49:02;;;;;;;;;;;;;;;;;;1035043;28;20008;-74
2023/06/26 02:49:32;;;;;;;;;;;;;;;;;;1040886;28;20004;-74
2023/06/26 02:50:03;;;;;;;;;;;;;;;;;;1041941;28;19980;-73
2023/06/26 02:50:33;;;;;;;;;;;;;;;;;;1041074;28;19960;-74
2023/06/26 02:51:03;;;;;;;;;;;;;;;;;;1039669;28;20387;-73
2023/06/26 02:51:33;;;;;;;;;;;;;;;;;;1040929;28;20047;-73
2023/06/26 02:52:03;;;;;;;;;;;;;;;;;;1042444;28;20466;-73
2023/06/26 02:52:34;;;;;;;;;;;;;;;;;;1039484;28;19929;-74
2023/06/26 02:53:04;;;;;;;;;;;;;;;;;;1042585;28;20324;-74
2023/06/26 02:53:34;;;;;;;;;;;;;;;;;;1034916;28;19920;-73
2023/06/26 02:54:04;;;;;;;;;;;;;;;;;;1033996;28;20345;-73
2023/06/26 02:54:35;;;;;;;;;;;;;;;;;;1034417;28;19921;-73
2023/06/26 02:55:05;;;;;;;;;;;;;;;;;;1031798;28;19913;-74
2023/06/26 02:55:35;;;;;;;;;;;;;;;;;;1035294;28;19922;-74
2023/06/26 02:56:06;;;;;;;;;;;;;;;;;;1035038;28;19917;-75
2023/06/26 02:56:36;;;;;;;;;;;;;;;;;;1038260;28;19922;-74
2023/06/26 02:57:06;;;;;;;;;;;;;;;;;;1038464;28;19966;-74
2023/06/26 02:57:36;;;;;;;;;;;;;;;;;;1041937;28;19916;-73
2023/06/26 02:58:07;;;;;;;;;;;;;;;;;;1041575;28;20362;-74
2023/06/26 02:58:37;;;;;;;;;;;;;;;;;;1042141;28;19979;-74
2023/06/26 02:59:07;;;;;;;;;;;;;;;;;;1034824;28;19914;-74
2023/06/26 02:59:39;;;;;;;;;;;;;;;;;;1033931;28;19963;-74
2023/06/26 03:00:11;;;;;;;;;;;;;;;;;;1032981;28;19913;-73
2023/06/26 03:00:41;;;;;;;;;;;;;;;;;;1033878;28;20937;-73
2023/06/26 03:01:11;;;;;;;;;;;;;;;;;;1035985;28;19920;-73
2023/06/26 03:01:41;;;;;;;;;;;;;;;;;;1039992;28;20003;-73
2023/06/26 03:02:12;;;;;;;;;;;;;;;;;;1037468;28;19917;-73
2023/06/26 03:02:42;;;;;;;;;;;;;;;;;;1038817;28;20314;-73
2023/06/26 03:03:13;;;;;;;;;;;;;;;;;;1037130;28;19917;-73
2023/06/26 03:03:43;;;;;;;;;;;;;;;;;;1033215;28;19914;-73
2023/06/26 03:04:15;;;;;;;;;;;;;;;;;;1033261;28;20751;-73
2023/06/26 03:04:45;;;;;;;;;;;;;;;;;;1032401;28;19917;-73
2023/06/26 03:05:16;;;;;;;;;;;;;;;;;;1031459;28;19918;-74
2023/06/26 03:05:46;;;;;;;;;;;;;;;;;;1029941;28;20012;-75
2023/06/26 03:06:16;;;;;;;;;;;;;;;;;;1032430;28;20278;-74
2023/06/26 03:06:46;;;;;;;;;;;;;;;;;;1033950;28;20004;-74
2023/06/26 03:07:17;;;;;;;;;;;;;;;;;;1034416;28;20356;-74
2023/06/26 03:07:47;;;;;;;;;;;;;;;;;;1029903;28;19921;-74
2023/06/26 03:08:17;;;;;;;;;;;;;;;;;;1034899;28;20369;-74
2023/06/26 03:08:47;;;;;;;;;;;;;;;;;;1034120;28;19953;-74
2023/06/26 03:09:18;;;;;;;;;;;;;;;;;;1035572;28;19919;-74
2023/06/26 03:09:48;;;;;;;;;;;;;;;;;;1037793;28;20020;-75
2023/06/26 03:10:18;;;;;;;;;;;;;;;;;;1041014;28;19913;-74
2023/06/26 03:10:48;;;;;;;;;;;;;;;;;;1035744;28;20971;-74
2023/06/26 03:11:19;;;;;;;;;;;;;;;;;;1032983;28;19984;-73
2023/06/26 03:11:49;;;;;;;;;;;;;;;;;;1036337;28;19927;-74
2023/06/26 03:12:19;;;;;;;;;;;;;;;;;;1036051;28;19917;-75
2023/06/26 03:12:49;;;;;;;;;;;;;;;;;;1035847;28;19918;-75
2023/06/26 03:13:20;;;;;;;;;;;;;;;;;;1038977;28;20388;-75
2023/06/26 03:13:50;;;;;;;;;;;;;;;;;;1039042;28;20381;-75
2023/06/26 03:14:20;;;;;;;;;;;;;;;;;;1035921;28;19912;-73
2023/06/26 03:14:51;;;;;;;;;;;;;;;;;;1032039;28;19935;-75
2023/06/26 03:15:21;;;;;;;;;;;;;;;;;;1033689;28;20442;-75
2023/06/26 03:15:51;;;;;;;;;;;;;;;;;;1034179;28;19929;-75
2023/06/26 03:16:21;;;;;;;;;;;;;;;;;;1033256;28;19924;-74
2023/06/26 03:16:52;;;;;;;;;;;;;;;;;;1040127;28;20381;-74
2023/06/26 03:17:22;;;;;;;;;;;;;;;;;;1043917;28;19913;-74
2023/06/26 03:17:53;;;;;;;;;;;;;;;;;;1039621;28;19916;-74
2023/06/26 03:18:23;;;;;;;;;;;;;;;;;;1040514;28;20338;-73
2023/06/26 03:18:53;;;;;;;;;;;;;;;;;;1038170;28;19909;-74
2023/06/26 03:19:23;;;;;;;;;;;;;;;;;;1037868;28;19992;-74
2023/06/26 03:19:54;;;;;;;;;;;;;;;;;;1033983;28;19913;-74
2023/06/26 03:20:24;;;;;;;;;;;;;;;;;;1030637;28;20509;-74
2023/06/26 03:20:54;;;;;;;;;;;;;;;;;;1032874;28;19921;-74
2023/06/26 03:21:24;;;;;;;;;;;;;;;;;;1035628;28;19921;-74
2023/06/26 03:21:55;;;;;;;;;;;;;;;;;;1032402;28;20146;-75
2023/06/26 03:22:25;;;;;;;;;;;;;;;;;;1030707;28;19929;-75
2023/06/26 03:22:55;;;;;;;;;;;;;;;;;;1029976;28;19937;-75
2023/06/26 03:23:26;;;;;;;;;;;;;;;;;;1026818;28;20367;-76
2023/06/26 03:23:56;;;;;;;;;;;;;;;;;;1029328;28;20048;-75
2023/06/26 03:24:26;;;;;;;;;;;;;;;;;;1035682;28;19948;-75
2023/06/26 03:24:56;;;;;;;;;;;;;;;;;;1031009;28;19925;-75
2023/06/26 03:25:27;;;;;;;;;;;;;;;;;;1032694;28;19930;-74
2023/06/26 03:25:57;;;;;;;;;;;;;;;;;;1030800;28;20230;-74
2023/06/26 03:26:28;;;;;;;;;;;;;;;;;;1034181;28;19969;-74
2023/06/26 03:26:58;;;;;;;;;;;;;;;;;;1033775;28;19937;-73
2023/06/26 03:27:28;;;;;;;;;;;;;;;;;;1037862;28;20373;-73
2023/06/26 03:27:58;;;;;;;;;;;;;;;;;;1032943;28;20452;-73